sensor_id;sensor_type;location;lat;lon;timestamp;pressure;altitude;pressure_sealevel;temperature;humidity
71770;BME280;66386;52.122;5.420;2023-02-13T00:00:05;103923.63;;;6.25;83.43
71770;BME280;66386;52.122;5.420;2023-02-13T00:02:32;103914.22;;;6.24;83.35
71770;BME280;66386;52.122;5.420;2023-02-13T00:04:58;103918.53;;;6.25;83.47
71770;BME280;66386;52.122;5.420;2023-02-13T00:07:25;103923.53;;;6.22;83.52
71770;BME280;66386;52.122;5.420;2023-02-13T00:09:51;103918.44;;;6.22;83.27
71770;BME280;66386;52.122;5.420;2023-02-13T00:12:18;103917.53;;;6.22;83.72
71770;BME280;66386;52.122;5.420;2023-02-13T00:14:44;103919.25;;;6.21;83.50
71770;BME280;66386;52.122;5.420;2023-02-13T00:17:10;103903.88;;;6.20;83.30
71770;BME280;66386;52.122;5.420;2023-02-13T00:19:37;103914.09;;;6.20;83.39
71770;BME280;66386;52.122;5.420;2023-02-13T00:22:03;103909.84;;;6.20;83.61
71770;BME280;66386;52.122;5.420;2023-02-13T00:24:30;103908.19;;;6.21;83.37
71770;BME280;66386;52.122;5.420;2023-02-13T00:26:56;103904.78;;;6.22;83.48
71770;BME280;66386;52.122;5.420;2023-02-13T00:29:23;103911.59;;;6.21;83.30
71770;BME280;66386;52.122;5.420;2023-02-13T00:31:49;103899.63;;;6.20;83.18
71770;BME280;66386;52.122;5.420;2023-02-13T00:34:16;103893.63;;;6.18;83.25
71770;BME280;66386;52.122;5.420;2023-02-13T00:36:45;103897.06;;;6.20;83.39
71770;BME280;66386;52.122;5.420;2023-02-13T00:39:11;103900.50;;;6.21;83.63
71770;BME280;66386;52.122;5.420;2023-02-13T00:41:38;103901.31;;;6.20;83.49
71770;BME280;66386;52.122;5.420;2023-02-13T00:44:05;103898.72;;;6.18;83.44
71770;BME280;66386;52.122;5.420;2023-02-13T00:46:31;103896.97;;;6.17;83.67
71770;BME280;66386;52.122;5.420;2023-02-13T00:48:58;103893.56;;;6.17;83.71
71770;BME280;66386;52.122;5.420;2023-02-13T00:51:24;103894.34;;;6.14;83.76
71770;BME280;66386;52.122;5.420;2023-02-13T00:53:51;103896.94;;;6.16;83.87
71770;BME280;66386;52.122;5.420;2023-02-13T00:56:17;103889.22;;;6.14;83.68
71770;BME280;66386;52.122;5.420;2023-02-13T00:58:44;103890.03;;;6.13;83.68
71770;BME280;66386;52.122;5.420;2023-02-13T01:01:11;103891.72;;;6.13;83.93
71770;BME280;66386;52.122;5.420;2023-02-13T01:03:37;103889.19;;;6.13;83.93
71770;BME280;66386;52.122;5.420;2023-02-13T01:06:04;103891.72;;;6.13;83.82
71770;BME280;66386;52.122;5.420;2023-02-13T01:08:32;103892.59;;;6.13;83.88
71770;BME280;66386;52.122;5.420;2023-02-13T01:10:58;103887.44;;;6.11;84.04
71770;BME280;66386;52.122;5.420;2023-02-13T01:13:26;103901.09;;;6.12;83.66
71770;BME280;66386;52.122;5.420;2023-02-13T01:15:52;103889.13;;;6.11;83.81
71770;BME280;66386;52.122;5.420;2023-02-13T01:18:19;103899.34;;;6.11;83.81
71770;BME280;66386;52.122;5.420;2023-02-13T01:20:59;103898.50;;;6.10;83.49
71770;BME280;66386;52.122;5.420;2023-02-13T01:23:30;103892.50;;;6.10;83.83
71770;BME280;66386;52.122;5.420;2023-02-13T01:25:56;103897.59;;;6.10;83.74
71770;BME280;66386;52.122;5.420;2023-02-13T01:28:23;103895.81;;;6.07;84.08
71770;BME280;66386;52.122;5.420;2023-02-13T01:30:56;103900.06;;;6.07;83.98
71770;BME280;66386;52.122;5.420;2023-02-13T01:33:25;103895.72;;;6.04;83.94
71770;BME280;66386;52.122;5.420;2023-02-13T01:35:52;103880.44;;;6.06;84.03
71770;BME280;66386;52.122;5.420;2023-02-13T01:38:20;103878.75;;;6.05;83.94
71770;BME280;66386;52.122;5.420;2023-02-13T01:40:51;103891.50;;;6.05;84.02
71770;BME280;66386;52.122;5.420;2023-02-13T01:43:19;103892.34;;;6.05;84.16
71770;BME280;66386;52.122;5.420;2023-02-13T01:45:53;103879.53;;;6.04;84.34
71770;BME280;66386;52.122;5.420;2023-02-13T01:48:24;103888.06;;;6.04;84.07
71770;BME280;66386;52.122;5.420;2023-02-13T01:50:58;103878.69;;;6.03;84.21
71770;BME280;66386;52.122;5.420;2023-02-13T01:53:39;103878.66;;;6.02;84.30
71770;BME280;66386;52.122;5.420;2023-02-13T01:56:25;103876.09;;;6.02;84.30
71770;BME280;66386;52.122;5.420;2023-02-13T01:58:58;103876.13;;;6.03;84.28
71770;BME280;66386;52.122;5.420;2023-02-13T02:01:26;103878.66;;;6.02;84.16
71770;BME280;66386;52.122;5.420;2023-02-13T02:03:59;103883.72;;;6.00;84.32
71770;BME280;66386;52.122;5.420;2023-02-13T02:06:33;103866.69;;;6.01;84.24
71770;BME280;66386;52.122;5.420;2023-02-13T02:09:05;103870.94;;;6.00;84.41
71770;BME280;66386;52.122;5.420;2023-02-13T02:11:49;103871.78;;;6.01;84.37
71770;BME280;66386;52.122;5.420;2023-02-13T02:14:18;103870.94;;;6.00;84.40
71770;BME280;66386;52.122;5.420;2023-02-13T02:16:44;103869.25;;;6.01;84.24
71770;BME280;66386;52.122;5.420;2023-02-13T02:19:19;103867.50;;;6.00;84.12
71770;BME280;66386;52.122;5.420;2023-02-13T02:21:59;103864.94;;;6.00;84.12
71770;BME280;66386;52.122;5.420;2023-02-13T02:30:38;103869.19;;;5.99;84.08
71770;BME280;66386;52.122;5.420;2023-02-13T02:41:56;103869.16;;;5.98;84.42
71770;BME280;66386;52.122;5.420;2023-02-13T02:44:41;103864.91;;;5.98;84.32
71770;BME280;66386;52.122;5.420;2023-02-13T02:55:59;103857.25;;;5.98;84.20
71770;BME280;66386;52.122;5.420;2023-02-13T02:58:53;103862.34;;;5.98;84.37
71770;BME280;66386;52.122;5.420;2023-02-13T03:01:36;103858.84;;;5.96;84.10
71770;BME280;66386;52.122;5.420;2023-02-13T03:04:36;103863.00;;;5.92;84.74
71770;BME280;66386;52.122;5.420;2023-02-13T03:07:23;103857.88;;;5.92;84.63
71770;BME280;66386;52.122;5.420;2023-02-13T03:10:02;103853.66;;;5.93;84.63
71770;BME280;66386;52.122;5.420;2023-02-13T03:16:02;103852.78;;;5.92;84.79
71770;BME280;66386;52.122;5.420;2023-02-13T03:18:55;103851.16;;;5.94;84.37
71770;BME280;66386;52.122;5.420;2023-02-13T03:41:39;103853.56;;;5.90;85.09
71770;BME280;66386;52.122;5.420;2023-02-13T03:46:56;103856.97;;;5.90;84.92
71770;BME280;66386;52.122;5.420;2023-02-13T03:49:28;103858.72;;;5.91;84.99
71770;BME280;66386;52.122;5.420;2023-02-13T03:52:25;103855.31;;;5.92;85.13
71770;BME280;66386;52.122;5.420;2023-02-13T03:55:01;103857.78;;;5.89;85.08
71770;BME280;66386;52.122;5.420;2023-02-13T03:57:51;103855.19;;;5.88;85.23
71770;BME280;66386;52.122;5.420;2023-02-13T04:00:40;103861.09;;;5.87;85.47
71770;BME280;66386;52.122;5.420;2023-02-13T04:06:09;103856.03;;;5.88;85.37
71770;BME280;66386;52.122;5.420;2023-02-13T04:08:36;103855.19;;;5.88;85.42
71770;BME280;66386;52.122;5.420;2023-02-13T04:11:09;103843.22;;;5.87;85.61
71770;BME280;66386;52.122;5.420;2023-02-13T04:13:55;103845.75;;;5.85;85.46
71770;BME280;66386;52.122;5.420;2023-02-13T04:16:33;103844.94;;;5.86;85.33
71770;BME280;66386;52.122;5.420;2023-02-13T04:19:01;103852.59;;;5.86;85.27
71770;BME280;66386;52.122;5.420;2023-02-13T04:21:35;103856.03;;;5.88;85.66
71770;BME280;66386;52.122;5.420;2023-02-13T04:24:02;103853.56;;;5.90;85.39
71770;BME280;66386;52.122;5.420;2023-02-13T04:26:34;103856.03;;;5.88;85.31
71770;BME280;66386;52.122;5.420;2023-02-13T04:29:02;103847.53;;;5.88;85.40
71770;BME280;66386;52.122;5.420;2023-02-13T04:31:28;103855.22;;;5.89;85.19
71770;BME280;66386;52.122;5.420;2023-02-13T04:33:55;103848.38;;;5.88;85.32
71770;BME280;66386;52.122;5.420;2023-02-13T04:36:22;103846.72;;;5.89;85.37
71770;BME280;66386;52.122;5.420;2023-02-13T04:38:49;103847.47;;;5.86;85.54
71770;BME280;66386;52.122;5.420;2023-02-13T04:41:16;103846.69;;;5.87;85.35
71770;BME280;66386;52.122;5.420;2023-02-13T04:43:43;103850.03;;;5.86;85.38
71770;BME280;66386;52.122;5.420;2023-02-13T04:46:10;103850.88;;;5.87;85.36
71770;BME280;66386;52.122;5.420;2023-02-13T04:48:36;103846.63;;;5.86;85.31
71770;BME280;66386;52.122;5.420;2023-02-13T04:51:04;103837.28;;;5.86;85.47
71770;BME280;66386;52.122;5.420;2023-02-13T04:53:30;103844.94;;;5.86;85.68
71770;BME280;66386;52.122;5.420;2023-02-13T04:55:57;103841.53;;;5.86;85.53
71770;BME280;66386;52.122;5.420;2023-02-13T04:58:24;103842.38;;;5.86;85.51
71770;BME280;66386;52.122;5.420;2023-02-13T05:00:50;103835.53;;;5.85;85.67
71770;BME280;66386;52.122;5.420;2023-02-13T05:03:17;103829.56;;;5.85;85.65
71770;BME280;66386;52.122;5.420;2023-02-13T05:05:43;103832.13;;;5.85;85.49
71770;BME280;66386;52.122;5.420;2023-02-13T05:08:10;103824.41;;;5.83;85.74
71770;BME280;66386;52.122;5.420;2023-02-13T05:10:36;103826.16;;;5.84;85.63
71770;BME280;66386;52.122;5.420;2023-02-13T05:13:03;103823.63;;;5.84;85.65
71770;BME280;66386;52.122;5.420;2023-02-13T05:15:29;103821.91;;;5.85;85.88
71770;BME280;66386;52.122;5.420;2023-02-13T05:17:56;103826.13;;;5.83;85.74
71770;BME280;66386;52.122;5.420;2023-02-13T05:20:22;103826.94;;;5.82;85.73
71770;BME280;66386;52.122;5.420;2023-02-13T05:22:51;103831.97;;;5.80;85.84
71770;BME280;66386;52.122;5.420;2023-02-13T05:25:39;103823.44;;;5.80;85.93
71770;BME280;66386;52.122;5.420;2023-02-13T05:28:06;103815.78;;;5.80;86.03
71770;BME280;66386;52.122;5.420;2023-02-13T05:30:51;103815.78;;;5.80;85.96
71770;BME280;66386;52.122;5.420;2023-02-13T05:33:18;103815.88;;;5.81;85.99
71770;BME280;66386;52.122;5.420;2023-02-13T05:35:44;103824.38;;;5.82;85.93
71770;BME280;66386;52.122;5.420;2023-02-13T05:38:11;103814.06;;;5.79;86.09
71770;BME280;66386;52.122;5.420;2023-02-13T05:40:37;103817.44;;;5.77;86.38
71770;BME280;66386;52.122;5.420;2023-02-13T05:43:04;103812.38;;;5.79;86.22
71770;BME280;66386;52.122;5.420;2023-02-13T05:45:30;103817.47;;;5.79;86.37
71770;BME280;66386;52.122;5.420;2023-02-13T05:47:57;103818.41;;;5.81;86.25
71770;BME280;66386;52.122;5.420;2023-02-13T05:50:23;103823.53;;;5.81;86.06
71770;BME280;66386;52.122;5.420;2023-02-13T05:52:50;103821.78;;;5.80;86.41
71770;BME280;66386;52.122;5.420;2023-02-13T05:55:16;103820.09;;;5.81;86.47
71770;BME280;66386;52.122;5.420;2023-02-13T05:57:42;103819.28;;;5.82;86.55
71770;BME280;66386;52.122;5.420;2023-02-13T06:00:09;103821.81;;;5.82;86.59
71770;BME280;66386;52.122;5.420;2023-02-13T06:02:36;103814.22;;;5.83;86.72
71770;BME280;66386;52.122;5.420;2023-02-13T06:05:02;103814.16;;;5.82;86.42
71770;BME280;66386;52.122;5.420;2023-02-13T06:07:29;103815.88;;;5.81;86.87
71770;BME280;66386;52.122;5.420;2023-02-13T06:09:55;103821.78;;;5.80;86.67
71770;BME280;66386;52.122;5.420;2023-02-13T06:12:24;103819.22;;;5.80;86.94
71770;BME280;66386;52.122;5.420;2023-02-13T06:14:51;103821.00;;;5.83;86.81
71770;BME280;66386;52.122;5.420;2023-02-13T06:17:17;103807.41;;;5.84;86.69
71770;BME280;66386;52.122;5.420;2023-02-13T06:19:43;103817.66;;;5.85;86.70
71770;BME280;66386;52.122;5.420;2023-02-13T06:22:10;103812.56;;;5.85;86.63
71770;BME280;66386;52.122;5.420;2023-02-13T06:24:36;103821.97;;;5.86;86.57
71770;BME280;66386;52.122;5.420;2023-02-13T06:27:03;103817.72;;;5.87;86.56
71770;BME280;66386;52.122;5.420;2023-02-13T06:29:29;103819.44;;;5.88;86.90
71770;BME280;66386;52.122;5.420;2023-02-13T06:31:58;103825.41;;;5.88;86.74
71770;BME280;66386;52.122;5.420;2023-02-13T06:34:25;103821.16;;;5.87;87.00
71770;BME280;66386;52.122;5.420;2023-02-13T06:36:51;103826.25;;;5.87;87.08
71770;BME280;66386;52.122;5.420;2023-02-13T06:39:18;103833.91;;;5.87;86.92
71770;BME280;66386;52.122;5.420;2023-02-13T06:41:44;103832.97;;;5.85;86.83
71770;BME280;66386;52.122;5.420;2023-02-13T06:44:11;103825.31;;;5.85;86.97
71770;BME280;66386;52.122;5.420;2023-02-13T06:46:37;103827.88;;;5.85;87.18
71770;BME280;66386;52.122;5.420;2023-02-13T06:49:03;103825.38;;;5.87;87.16
71770;BME280;66386;52.122;5.420;2023-02-13T06:51:30;103836.47;;;5.87;86.90
71770;BME280;66386;52.122;5.420;2023-02-13T06:53:56;103832.16;;;5.86;86.99
71770;BME280;66386;52.122;5.420;2023-02-13T06:56:23;103835.63;;;5.88;87.30
71770;BME280;66386;52.122;5.420;2023-02-13T06:58:51;103832.22;;;5.88;86.99
71770;BME280;66386;52.122;5.420;2023-02-13T07:01:18;103824.50;;;5.86;87.22
71770;BME280;66386;52.122;5.420;2023-02-13T07:03:44;103834.72;;;5.86;87.29
71770;BME280;66386;52.122;5.420;2023-02-13T07:06:19;103834.72;;;5.86;87.17
71770;BME280;66386;52.122;5.420;2023-02-13T07:08:46;103835.56;;;5.87;87.47
71770;BME280;66386;52.122;5.420;2023-02-13T07:11:19;103843.28;;;5.88;87.53
71770;BME280;66386;52.122;5.420;2023-02-13T07:13:45;103842.44;;;5.88;87.49
71770;BME280;66386;52.122;5.420;2023-02-13T07:16:12;103845.91;;;5.90;87.75
71770;BME280;66386;52.122;5.420;2023-02-13T07:18:39;103845.03;;;5.89;87.74
71770;BME280;66386;52.122;5.420;2023-02-13T07:21:06;103854.47;;;5.92;87.72
71770;BME280;66386;52.122;5.420;2023-02-13T07:23:32;103855.31;;;5.92;87.54
71770;BME280;66386;52.122;5.420;2023-02-13T07:25:59;103848.59;;;5.94;87.57
71770;BME280;66386;52.122;5.420;2023-02-13T07:28:27;103849.50;;;5.97;87.49
71770;BME280;66386;52.122;5.420;2023-02-13T07:30:54;103840.19;;;5.97;87.46
71770;BME280;66386;52.122;5.420;2023-02-13T07:33:23;103832.59;;;5.99;87.45
71770;BME280;66386;52.122;5.420;2023-02-13T07:35:50;103834.41;;;6.03;87.75
71770;BME280;66386;52.122;5.420;2023-02-13T07:38:17;103839.50;;;6.03;87.57
71770;BME280;66386;52.122;5.420;2023-02-13T07:40:44;103836.19;;;6.05;87.75
71770;BME280;66386;52.122;5.420;2023-02-13T07:43:11;103839.59;;;6.06;87.58
71770;BME280;66386;52.122;5.420;2023-02-13T07:45:38;103847.38;;;6.09;87.61
71770;BME280;66386;52.122;5.420;2023-02-13T07:48:05;103843.16;;;6.11;87.64
71770;BME280;66386;52.122;5.420;2023-02-13T07:50:31;103845.00;;;6.15;87.63
71770;BME280;66386;52.122;5.420;2023-02-13T07:53:00;103843.34;;;6.17;87.75
71770;BME280;66386;52.122;5.420;2023-02-13T07:55:28;103847.72;;;6.21;87.55
71770;BME280;66386;52.122;5.420;2023-02-13T07:57:55;103851.19;;;6.23;87.53
71770;BME280;66386;52.122;5.420;2023-02-13T08:00:22;103858.13;;;6.27;87.57
71770;BME280;66386;52.122;5.420;2023-02-13T08:02:48;103855.69;;;6.32;87.44
71770;BME280;66386;52.122;5.420;2023-02-13T08:05:15;103860.09;;;6.36;87.57
71770;BME280;66386;52.122;5.420;2023-02-13T08:07:41;103862.78;;;6.41;87.53
71770;BME280;66386;52.122;5.420;2023-02-13T08:10:10;103865.50;;;6.45;87.42
71770;BME280;66386;52.122;5.420;2023-02-13T08:12:56;103868.22;;;6.52;87.49
71770;BME280;66386;52.122;5.420;2023-02-13T08:15:23;103870.00;;;6.54;87.37
71770;BME280;66386;52.122;5.420;2023-02-13T08:17:49;103877.75;;;6.57;87.34
71770;BME280;66386;52.122;5.420;2023-02-13T08:20:16;103875.31;;;6.62;87.38
71770;BME280;66386;52.122;5.420;2023-02-13T08:22:42;103878.00;;;6.67;87.30
71770;BME280;66386;52.122;5.420;2023-02-13T08:25:09;103880.72;;;6.73;87.22
71770;BME280;66386;52.122;5.420;2023-02-13T08:27:36;103874.03;;;6.76;86.98
71770;BME280;66386;52.122;5.420;2023-02-13T08:30:04;103874.19;;;6.82;87.06
71770;BME280;66386;52.122;5.420;2023-02-13T08:32:30;103875.25;;;6.89;86.94
71770;BME280;66386;52.122;5.420;2023-02-13T08:35:17;103870.38;;;6.98;86.68
71770;BME280;66386;52.122;5.420;2023-02-13T08:37:43;103878.97;;;7.02;86.54
71770;BME280;66386;52.122;5.420;2023-02-13T08:40:12;103881.69;;;7.07;86.48
71770;BME280;66386;52.122;5.420;2023-02-13T08:42:39;103877.50;;;7.10;86.30
71770;BME280;66386;52.122;5.420;2023-02-13T08:45:06;103878.50;;;7.15;86.48
71770;BME280;66386;52.122;5.420;2023-02-13T08:47:32;103870.09;;;7.21;86.40
71770;BME280;66386;52.122;5.420;2023-02-13T08:49:59;103881.38;;;7.28;86.31
71770;BME280;66386;52.122;5.420;2023-02-13T08:52:28;103876.38;;;7.32;86.11
71770;BME280;66386;52.122;5.420;2023-02-13T08:54:55;103876.66;;;7.43;86.10
71770;BME280;66386;52.122;5.420;2023-02-13T08:57:21;103870.03;;;7.51;85.85
71770;BME280;66386;52.122;5.420;2023-02-13T08:59:48;103874.50;;;7.60;85.63
71770;BME280;66386;52.122;5.420;2023-02-13T09:02:14;103873.81;;;7.67;85.36
71770;BME280;66386;52.122;5.420;2023-02-13T09:04:41;103871.47;;;7.77;85.24
71770;BME280;66386;52.122;5.420;2023-02-13T09:07:07;103872.59;;;7.88;84.46
71770;BME280;66386;52.122;5.420;2023-02-13T09:09:34;103875.25;;;8.31;84.51
71770;BME280;66386;52.122;5.420;2023-02-13T09:12:00;103876.44;;;8.45;83.66
71770;BME280;66386;52.122;5.420;2023-02-13T09:14:27;103874.47;;;8.33;82.61
71770;BME280;66386;52.122;5.420;2023-02-13T09:16:53;103867.47;;;8.26;82.93
71770;BME280;66386;52.122;5.420;2023-02-13T09:19:20;103867.63;;;8.32;82.99
71770;BME280;66386;52.122;5.420;2023-02-13T09:21:46;103876.25;;;8.37;82.84
71770;BME280;66386;52.122;5.420;2023-02-13T09:24:13;103872.13;;;8.43;82.95
71770;BME280;66386;52.122;5.420;2023-02-13T09:26:39;103872.78;;;8.34;82.37
71770;BME280;66386;52.122;5.420;2023-02-13T09:29:05;103875.41;;;8.37;82.80
71770;BME280;66386;52.122;5.420;2023-02-13T09:31:32;103871.00;;;8.31;82.60
71770;BME280;66386;52.122;5.420;2023-02-13T09:33:59;103874.78;;;8.46;83.02
71770;BME280;66386;52.122;5.420;2023-02-13T09:36:25;103873.28;;;8.57;82.73
71770;BME280;66386;52.122;5.420;2023-02-13T09:38:53;103869.97;;;8.63;82.23
71770;BME280;66386;52.122;5.420;2023-02-13T09:41:41;103870.84;;;8.63;81.67
71770;BME280;66386;52.122;5.420;2023-02-13T09:44:28;103868.22;;;8.59;82.09
71770;BME280;66386;52.122;5.420;2023-02-13T09:50:29;103865.81;;;9.14;81.67
71770;BME280;66386;52.122;5.420;2023-02-13T09:52:58;103867.88;;;9.33;80.52
71770;BME280;66386;52.122;5.420;2023-02-13T09:55:30;103870.25;;;9.24;79.82
71770;BME280;66386;52.122;5.420;2023-02-13T09:58:14;103869.50;;;9.28;79.80
71770;BME280;66386;52.122;5.420;2023-02-13T10:00:44;103868.03;;;9.42;78.99
71770;BME280;66386;52.122;5.420;2023-02-13T10:06:07;103862.84;;;9.39;78.37
71770;BME280;66386;52.122;5.420;2023-02-13T10:11:41;103873.97;;;9.40;78.77
71770;BME280;66386;52.122;5.420;2023-02-13T10:14:20;103874.84;;;9.40;78.67
71770;BME280;66386;52.122;5.420;2023-02-13T10:16:52;103871.56;;;9.49;78.83
71770;BME280;66386;52.122;5.420;2023-02-13T10:19:43;103871.81;;;9.65;78.18
71770;BME280;66386;52.122;5.420;2023-02-13T10:24:51;103868.31;;;9.59;78.04
71770;BME280;66386;52.122;5.420;2023-02-13T10:27:23;103865.13;;;9.74;77.49
71770;BME280;66386;52.122;5.420;2023-02-13T10:29:55;103867.09;;;9.94;76.84
71770;BME280;66386;52.122;5.420;2023-02-13T10:32:48;103863.66;;;9.92;76.82
71770;BME280;66386;52.122;5.420;2023-02-13T10:35:37;103863.88;;;10.07;76.38
71770;BME280;66386;52.122;5.420;2023-02-13T10:38:14;103858.81;;;10.10;76.04
71770;BME280;66386;52.122;5.420;2023-02-13T10:40:57;103867.16;;;9.97;75.67
71770;BME280;66386;52.122;5.420;2023-02-13T10:43:29;103851.81;;;10.02;76.89
71770;BME280;66386;52.122;5.420;2023-02-13T10:51:24;103853.00;;;10.25;75.83
71770;BME280;66386;52.122;5.420;2023-02-13T10:59:29;103852.41;;;9.84;76.03
71770;BME280;66386;52.122;5.420;2023-02-13T11:02:01;103850.88;;;9.96;76.19
71770;BME280;66386;52.122;5.420;2023-02-13T11:04:29;103857.84;;;10.05;76.08
71770;BME280;66386;52.122;5.420;2023-02-13T11:07:00;103843.28;;;10.04;75.77
71770;BME280;66386;52.122;5.420;2023-02-13T11:09:28;103844.22;;;10.11;75.91
71770;BME280;66386;52.122;5.420;2023-02-13T11:11:56;103842.66;;;10.21;76.09
71770;BME280;66386;52.122;5.420;2023-02-13T11:14:24;103841.06;;;10.32;75.73
71770;BME280;66386;52.122;5.420;2023-02-13T11:17:05;103828.19;;;10.30;74.89
71770;BME280;66386;52.122;5.420;2023-02-13T11:19:33;103828.19;;;10.30;75.17
71770;BME280;66386;52.122;5.420;2023-02-13T11:22:04;103829.06;;;10.29;75.15
71770;BME280;66386;52.122;5.420;2023-02-13T11:24:32;103833.47;;;10.37;75.36
71770;BME280;66386;52.122;5.420;2023-02-13T11:27:04;103825.03;;;10.47;75.16
71770;BME280;66386;52.122;5.420;2023-02-13T11:29:36;103819.66;;;10.33;74.95
71770;BME280;66386;52.122;5.420;2023-02-13T11:32:17;103817.88;;;10.29;75.09
71770;BME280;66386;52.122;5.420;2023-02-13T11:34:45;103826.63;;;10.40;74.76
71770;BME280;66386;52.122;5.420;2023-02-13T11:37:14;103815.59;;;10.49;74.15
71770;BME280;66386;52.122;5.420;2023-02-13T11:39:41;103813.09;;;10.57;74.42
71770;BME280;66386;52.122;5.420;2023-02-13T11:42:28;103814.88;;;10.61;74.30
71770;BME280;66386;52.122;5.420;2023-02-13T11:45:06;103816.09;;;10.22;74.38
71770;BME280;66386;52.122;5.420;2023-02-13T11:47:39;103810.75;;;10.05;75.04
71770;BME280;66386;52.122;5.420;2023-02-13T11:50:26;103806.59;;;10.16;74.71
71770;BME280;66386;52.122;5.420;2023-02-13T11:53:06;103798.03;;;10.17;74.67
71770;BME280;66386;52.122;5.420;2023-02-13T11:55:36;103798.03;;;10.17;74.46
71770;BME280;66386;52.122;5.420;2023-02-13T12:00:38;103794.56;;;10.10;74.43
71770;BME280;66386;52.122;5.420;2023-02-13T12:03:29;103790.41;;;10.25;74.48
71770;BME280;66386;52.122;5.420;2023-02-13T12:06:11;103787.19;;;10.37;74.42
71770;BME280;66386;52.122;5.420;2023-02-13T12:08:43;103781.19;;;10.38;73.76
71770;BME280;66386;52.122;5.420;2023-02-13T12:11:35;103783.75;;;10.38;74.36
71770;BME280;66386;52.122;5.420;2023-02-13T12:14:04;103783.72;;;10.36;73.92
71770;BME280;66386;52.122;5.420;2023-02-13T12:16:37;103777.78;;;10.39;74.02
71770;BME280;66386;52.122;5.420;2023-02-13T12:19:17;103770.91;;;10.39;74.23
71770;BME280;66386;52.122;5.420;2023-02-13T12:41:32;103771.22;;;10.69;72.96
71770;BME280;66386;52.122;5.420;2023-02-13T12:44:18;103768.72;;;10.73;73.09
71770;BME280;66386;52.122;5.420;2023-02-13T12:47:18;103761.81;;;10.71;72.75
71770;BME280;66386;52.122;5.420;2023-02-13T12:50:18;103759.28;;;10.75;73.03
71770;BME280;66386;52.122;5.420;2023-02-13T12:56:35;103768.72;;;10.76;72.91
71770;BME280;66386;52.122;5.420;2023-02-13T13:01:50;103753.28;;;10.73;72.91
71770;BME280;66386;52.122;5.420;2023-02-13T13:12:19;103734.53;;;10.88;73.04
71770;BME280;66386;52.122;5.420;2023-02-13T13:15:29;103735.38;;;10.86;72.72
71770;BME280;66386;52.122;5.420;2023-02-13T13:20:56;103732.78;;;10.84;72.83
71770;BME280;66386;52.122;5.420;2023-02-13T13:23:32;103727.66;;;10.89;72.60
71770;BME280;66386;52.122;5.420;2023-02-13T13:26:21;103721.66;;;10.88;72.49
71770;BME280;66386;52.122;5.420;2023-02-13T13:28:54;103717.34;;;10.86;72.40
71770;BME280;66386;52.122;5.420;2023-02-13T13:31:22;103716.50;;;10.87;71.99
71770;BME280;66386;52.122;5.420;2023-02-13T13:33:52;103707.88;;;10.81;71.77
71770;BME280;66386;52.122;5.420;2023-02-13T13:36:29;103708.72;;;10.79;72.08
71770;BME280;66386;52.122;5.420;2023-02-13T13:44:51;103703.53;;;10.76;72.03
71770;BME280;66386;52.122;5.420;2023-02-13T13:47:44;103705.25;;;10.75;72.07
71770;BME280;66386;52.122;5.420;2023-02-13T13:50:22;103690.69;;;10.76;72.50
71770;BME280;66386;52.122;5.420;2023-02-13T13:53:12;103688.97;;;10.75;72.29
71770;BME280;66386;52.122;5.420;2023-02-13T13:58:31;103690.69;;;10.76;72.68
71770;BME280;66386;52.122;5.420;2023-02-13T14:04:00;103687.31;;;10.85;72.93
71770;BME280;66386;52.122;5.420;2023-02-13T14:09:36;103679.59;;;10.83;73.06
71770;BME280;66386;52.122;5.420;2023-02-13T14:12:44;103671.00;;;10.81;72.78
71770;BME280;66386;52.122;5.420;2023-02-13T14:20:50;103672.63;;;10.71;72.48
71770;BME280;66386;52.122;5.420;2023-02-13T14:23:37;103676.03;;;10.69;72.81
71770;BME280;66386;52.122;5.420;2023-02-13T14:28:54;103666.66;;;10.74;73.06
71770;BME280;66386;52.122;5.420;2023-02-13T14:31:30;103668.34;;;10.72;72.86
71770;BME280;66386;52.122;5.420;2023-02-13T14:36:32;103667.47;;;10.68;72.57
71770;BME280;66386;52.122;5.420;2023-02-13T14:39:02;103667.47;;;10.68;72.70
71770;BME280;66386;52.122;5.420;2023-02-13T14:42:21;103665.72;;;10.64;72.84
71770;BME280;66386;52.122;5.420;2023-02-13T14:44:50;103664.88;;;10.63;72.80
71770;BME280;66386;52.122;5.420;2023-02-13T14:47:24;103656.25;;;10.63;73.17
71770;BME280;66386;52.122;5.420;2023-02-13T14:49:54;103651.13;;;10.63;73.38
71770;BME280;66386;52.122;5.420;2023-02-13T14:52:24;103660.59;;;10.67;73.48
71770;BME280;66386;52.122;5.420;2023-02-13T14:54:57;103652.88;;;10.65;73.58
71770;BME280;66386;52.122;5.420;2023-02-13T14:57:28;103648.56;;;10.63;73.00
71770;BME280;66386;52.122;5.420;2023-02-13T14:59:58;103646.84;;;10.60;72.70
71770;BME280;66386;52.122;5.420;2023-02-13T15:02:32;103654.53;;;10.57;73.15
71770;BME280;66386;52.122;5.420;2023-02-13T15:05:05;103655.38;;;10.58;73.33
71770;BME280;66386;52.122;5.420;2023-02-13T15:07:37;103648.47;;;10.54;73.33
71770;BME280;66386;52.122;5.420;2023-02-13T15:10:42;103652.78;;;10.53;73.66
71770;BME280;66386;52.122;5.420;2023-02-13T15:13:15;103653.59;;;10.49;73.69
71770;BME280;66386;52.122;5.420;2023-02-13T15:15:56;103649.28;;;10.48;73.59
71770;BME280;66386;52.122;5.420;2023-02-13T15:18:27;103655.31;;;10.48;73.84
71770;BME280;66386;52.122;5.420;2023-02-13T15:20:55;103653.56;;;10.46;74.18
71770;BME280;66386;52.122;5.420;2023-02-13T15:23:37;103658.72;;;10.47;74.23
71770;BME280;66386;52.122;5.420;2023-02-13T15:26:05;103652.72;;;10.47;74.40
71770;BME280;66386;52.122;5.420;2023-02-13T15:28:33;103647.53;;;10.42;74.56
71770;BME280;66386;52.122;5.420;2023-02-13T15:31:06;103653.53;;;10.40;74.69
71770;BME280;66386;52.122;5.420;2023-02-13T15:33:47;103643.16;;;10.35;74.71
71770;BME280;66386;52.122;5.420;2023-02-13T15:36:23;103644.88;;;10.35;74.59
71770;BME280;66386;52.122;5.420;2023-02-13T15:39:03;103643.09;;;10.29;74.74
71770;BME280;66386;52.122;5.420;2023-02-13T15:41:41;103647.34;;;10.25;74.85